createdAt,value
2023-01-18T00:00:18.919Z,6.77
2023-01-18T00:02:47.301Z,7.97
2023-01-18T00:05:15.477Z,5.90
2023-01-18T00:07:43.423Z,6.60
2023-01-18T00:10:12.940Z,12.97
2023-01-18T00:12:40.862Z,7.43
2023-01-18T00:15:10.124Z,6.57
2023-01-18T00:17:47.662Z,6.67
2023-01-18T00:20:15.843Z,7.27
2023-01-18T00:22:43.921Z,5.67
2023-01-18T00:25:13.187Z,5.17
2023-01-18T00:27:47.430Z,5.60
2023-01-18T00:30:17.519Z,6.67
2023-01-18T00:32:45.458Z,5.50
2023-01-18T00:35:13.421Z,4.83
2023-01-18T00:37:41.269Z,4.17
2023-01-18T00:40:10.585Z,4.50
2023-01-18T00:42:57.433Z,5.53
2023-01-18T00:45:25.704Z,3.77
2023-01-18T00:47:54.062Z,4.40
2023-01-18T00:50:22.508Z,8.30
2023-01-18T00:52:50.793Z,7.50
2023-01-18T00:55:18.823Z,4.80
2023-01-18T00:57:48.825Z,5.37
2023-01-18T01:00:16.822Z,4.03
2023-01-18T01:02:46.958Z,8.97
2023-01-18T01:05:36.826Z,7.93
2023-01-18T01:08:05.863Z,4.57
2023-01-18T01:10:34.122Z,4.43
2023-01-18T01:13:20.623Z,5.90
2023-01-18T01:16:05.857Z,6.27
2023-01-18T01:18:51.093Z,5.97
2023-01-18T01:21:36.474Z,6.43
2023-01-18T01:24:22.155Z,5.27
2023-01-18T01:26:50.115Z,6.77
2023-01-18T01:29:19.453Z,8.10
2023-01-18T01:31:47.288Z,5.97
2023-01-18T01:34:15.295Z,4.73
2023-01-18T01:36:43.256Z,4.30
2023-01-18T01:39:11.906Z,6.90
2023-01-18T01:41:39.814Z,8.67
2023-01-18T01:44:40.702Z,7.70
2023-01-18T01:47:13.397Z,8.80
2023-01-18T01:49:44.441Z,8.53
2023-01-18T01:52:15.922Z,6.43
2023-01-18T01:54:47.430Z,8.27
2023-01-18T01:57:17.221Z,7.20
2023-01-18T01:59:48.618Z,5.80
2023-01-18T02:02:17.845Z,5.13
2023-01-18T02:04:46.578Z,7.00
2023-01-18T02:07:14.453Z,5.73
2023-01-18T02:09:42.457Z,8.63
2023-01-18T02:12:10.316Z,6.27
2023-01-18T02:14:38.167Z,5.27
2023-01-18T02:17:15.782Z,5.20
2023-01-18T02:20:19.697Z,6.17
2023-01-18T02:23:20.355Z,10.97
2023-01-18T02:26:14.676Z,5.00
2023-01-18T02:28:47.314Z,6.43
2023-01-18T02:31:18.536Z,6.53
2023-01-18T02:33:48.067Z,7.10
2023-01-18T02:36:23.450Z,5.57
2023-01-18T02:38:55.429Z,4.90
2023-01-18T02:41:49.683Z,19.93
2023-01-18T02:44:48.189Z,10.23
2023-01-18T02:47:17.150Z,9.40
2023-01-18T02:49:45.026Z,6.03
2023-01-18T02:52:38.449Z,5.80
2023-01-18T02:55:08.815Z,7.03
2023-01-18T02:57:36.907Z,5.67
2023-01-18T03:00:10.315Z,5.60
2023-01-18T03:02:39.280Z,6.80
2023-01-18T03:05:10.597Z,5.47
2023-01-18T03:07:43.928Z,6.93
2023-01-18T03:10:13.105Z,6.60
2023-01-18T03:12:48.098Z,7.60
2023-01-18T03:15:21.371Z,6.83
2023-01-18T03:17:52.801Z,4.57
2023-01-18T03:20:25.682Z,6.90
2023-01-18T03:23:17.123Z,4.50
2023-01-18T03:25:49.253Z,5.70
2023-01-18T03:28:38.694Z,5.27
2023-01-18T03:31:28.258Z,5.47
2023-01-18T03:33:59.720Z,5.13
2023-01-18T03:36:30.587Z,6.77
2023-01-18T03:39:01.878Z,5.43
2023-01-18T03:41:33.166Z,6.17
2023-01-18T03:44:04.143Z,4.90
2023-01-18T03:46:34.243Z,7.63
2023-01-18T03:49:02.426Z,8.03
2023-01-18T03:51:38.803Z,6.77
2023-01-18T03:54:12.594Z,6.63
2023-01-18T03:56:44.642Z,7.53
2023-01-18T03:59:12.440Z,7.07
2023-01-18T04:01:44.428Z,5.53
2023-01-18T04:04:12.338Z,6.43
2023-01-18T04:06:40.205Z,7.30
2023-01-18T04:09:08.593Z,10.43
2023-01-18T04:11:36.440Z,5.17
2023-01-18T04:14:04.244Z,5.97
2023-01-18T04:16:32.068Z,6.87
2023-01-18T04:19:01.247Z,5.43
2023-01-18T04:21:29.061Z,5.97
2023-01-18T04:23:56.855Z,6.23
2023-01-18T04:26:24.751Z,12.03
2023-01-18T04:28:52.536Z,8.33
2023-01-18T04:31:20.372Z,6.70
2023-01-18T04:33:51.457Z,6.83
2023-01-18T04:36:21.555Z,6.00
2023-01-18T04:38:53.951Z,6.07
2023-01-18T04:41:25.213Z,8.13
2023-01-18T04:43:53.067Z,6.80
2023-01-18T04:46:20.959Z,6.23
2023-01-18T04:48:51.563Z,7.47
2023-01-18T04:51:21.020Z,7.70
2023-01-18T04:53:49.114Z,5.13
2023-01-18T04:56:17.950Z,9.03
2023-01-18T04:58:46.133Z,8.40
2023-01-18T05:01:14.383Z,8.20
2023-01-18T05:03:43.347Z,7.30
2023-01-18T05:06:12.869Z,7.17
2023-01-18T05:08:42.580Z,7.80
2023-01-18T05:11:12.398Z,9.77
2023-01-18T05:13:41.266Z,6.77
2023-01-18T05:16:11.320Z,7.10
2023-01-18T05:18:39.286Z,6.30
2023-01-18T05:21:07.441Z,11.17
2023-01-18T05:23:35.324Z,13.93
2023-01-18T05:26:04.666Z,9.23
2023-01-18T05:28:32.520Z,7.57
2023-01-18T05:31:00.337Z,7.60
2023-01-18T05:33:28.262Z,8.97
2023-01-18T05:35:56.947Z,8.70
2023-01-18T05:38:25.189Z,6.40
2023-01-18T05:40:54.296Z,8.90
2023-01-18T05:43:25.334Z,6.60
2023-01-18T05:45:56.922Z,7.60
2023-01-18T05:48:25.376Z,9.50
2023-01-18T05:50:55.810Z,8.40
2023-01-18T05:53:45.267Z,7.80
2023-01-18T05:59:47.862Z,15.23
2023-01-18T06:02:15.785Z,9.73
2023-01-18T06:04:44.375Z,11.40
2023-01-18T06:07:12.902Z,6.63
2023-01-18T06:09:42.748Z,8.90
2023-01-18T06:12:10.810Z,6.53
2023-01-18T06:14:40.008Z,5.97
2023-01-18T06:17:08.935Z,8.37
2023-01-18T06:19:36.939Z,8.60
2023-01-18T06:22:04.931Z,6.07
2023-01-18T06:24:32.796Z,6.93
2023-01-18T06:27:03.105Z,5.73
2023-01-18T06:29:31.030Z,7.90
2023-01-18T06:32:00.311Z,10.47
2023-01-18T06:34:30.293Z,5.67
2023-01-18T06:36:58.255Z,6.63
2023-01-18T06:39:26.138Z,7.57
2023-01-18T06:41:53.971Z,11.90
2023-01-18T06:44:21.898Z,6.33
2023-01-18T06:46:49.743Z,7.90
2023-01-18T06:49:19.051Z,9.90
2023-01-18T06:51:46.985Z,9.90
2023-01-18T06:54:15.568Z,7.60
2023-01-18T06:56:43.857Z,8.17
2023-01-18T06:59:11.713Z,6.43
2023-01-18T07:01:39.685Z,6.80
2023-01-18T07:04:07.632Z,6.10
2023-01-18T07:06:37.426Z,5.20
2023-01-18T07:09:07.583Z,4.90
2023-01-18T07:11:36.298Z,7.00
2023-01-18T07:14:04.304Z,6.50
2023-01-18T07:16:32.619Z,6.17
2023-01-18T07:19:01.859Z,6.23
2023-01-18T07:21:30.403Z,4.30
2023-01-18T07:24:00.029Z,10.60
2023-01-18T07:26:27.894Z,6.30
2023-01-18T07:28:56.296Z,5.30
2023-01-18T07:31:25.232Z,6.30
2023-01-18T07:33:53.322Z,6.03
2023-01-18T07:36:22.221Z,9.03
2023-01-18T07:38:50.116Z,7.13
2023-01-18T07:41:19.316Z,4.80
2023-01-18T07:43:47.172Z,7.13
2023-01-18T07:46:18.528Z,11.93
2023-01-18T07:48:46.481Z,13.20
2023-01-18T07:51:14.470Z,7.13
2023-01-18T07:53:43.517Z,6.97
2023-01-18T07:56:13.959Z,8.50
2023-01-18T07:58:43.487Z,6.97
2023-01-18T08:01:13.708Z,4.10
2023-01-18T08:03:42.919Z,3.73
2023-01-18T08:06:12.779Z,5.27
2023-01-18T08:08:40.989Z,5.43
2023-01-18T08:11:08.891Z,7.23
2023-01-18T08:13:37.018Z,7.80
2023-01-18T08:16:07.939Z,5.47
2023-01-18T08:18:35.813Z,4.57
2023-01-18T08:21:03.681Z,6.17
2023-01-18T08:23:31.473Z,4.73
2023-01-18T08:26:02.401Z,4.77
2023-01-18T08:28:30.332Z,10.63
2023-01-18T08:31:11.839Z,6.43
2023-01-18T08:33:41.156Z,3.33
2023-01-18T08:36:13.905Z,3.70
2023-01-18T08:38:41.784Z,3.17
2023-01-18T08:41:10.152Z,7.73
2023-01-18T08:43:38.303Z,3.50
2023-01-18T08:46:07.662Z,8.83
2023-01-18T08:48:35.565Z,3.10
2023-01-18T08:51:04.180Z,4.17
2023-01-18T08:53:32.399Z,7.17
2023-01-18T08:56:00.253Z,5.53
2023-01-18T08:58:28.152Z,7.43
2023-01-18T09:00:55.970Z,7.70
2023-01-18T09:03:25.229Z,4.67
2023-01-18T09:05:53.066Z,4.23
2023-01-18T09:08:20.875Z,4.80
2023-01-18T09:10:48.747Z,3.30
2023-01-18T09:13:16.614Z,4.00
2023-01-18T09:15:45.533Z,6.43
2023-01-18T09:18:13.416Z,4.63
2023-01-18T09:20:43.576Z,3.00
2023-01-18T09:23:11.426Z,3.47
2023-01-18T09:25:41.108Z,5.97
2023-01-18T09:28:08.949Z,6.70
2023-01-18T09:30:36.949Z,5.67
2023-01-18T09:33:04.945Z,4.13
2023-01-18T09:35:33.126Z,5.80
2023-01-18T09:38:02.295Z,6.03
2023-01-18T09:40:40.595Z,8.07
2023-01-18T09:43:16.588Z,5.20
2023-01-18T09:45:47.465Z,3.83
2023-01-18T09:48:26.014Z,10.00
2023-01-18T09:50:54.387Z,5.73
2023-01-18T09:53:34.426Z,18.40
2023-01-18T09:56:06.884Z,3.97
2023-01-18T09:58:42.668Z,4.37
2023-01-18T10:01:13.970Z,5.40
2023-01-18T10:03:48.700Z,5.13
2023-01-18T10:06:21.278Z,5.37
2023-01-18T10:08:54.707Z,4.93
2023-01-18T10:11:31.452Z,7.80
2023-01-18T10:14:05.219Z,4.50
2023-01-18T10:16:34.972Z,4.20
2023-01-18T10:19:02.992Z,4.00
2023-01-18T10:21:41.816Z,3.53
2023-01-18T10:24:28.224Z,9.30
2023-01-18T10:27:04.478Z,5.37
2023-01-18T10:29:41.526Z,8.67
2023-01-18T10:32:12.386Z,7.97
2023-01-18T10:34:44.122Z,4.90
2023-01-18T10:37:15.178Z,8.27
2023-01-18T10:39:50.907Z,4.80
2023-01-18T10:42:21.687Z,5.60
2023-01-18T10:44:49.545Z,6.03
2023-01-18T10:47:19.128Z,5.13
2023-01-18T10:49:50.390Z,4.00
2023-01-18T10:52:27.262Z,6.43
2023-01-18T10:54:58.154Z,4.80
2023-01-18T10:57:29.961Z,6.07
2023-01-18T10:59:58.412Z,4.53
2023-01-18T11:02:30.267Z,4.07
2023-01-18T11:05:06.299Z,6.60
2023-01-18T11:07:34.187Z,6.43
2023-01-18T11:10:09.595Z,3.53
2023-01-18T11:12:44.269Z,3.60
2023-01-18T11:15:25.209Z,4.83
2023-01-18T11:18:06.500Z,2.53
2023-01-18T11:20:38.569Z,4.03
2023-01-18T11:23:08.656Z,9.00
2023-01-18T11:25:39.806Z,4.97
2023-01-18T11:28:14.738Z,3.90
2023-01-18T11:30:51.971Z,4.50
2023-01-18T11:33:20.728Z,4.80
2023-01-18T11:35:55.151Z,5.03
2023-01-18T11:38:28.177Z,4.60
2023-01-18T11:41:15.122Z,3.07
2023-01-18T11:43:49.802Z,3.67
2023-01-18T11:46:27.676Z,5.17
2023-01-18T11:49:00.844Z,4.53
2023-01-18T11:51:33.482Z,3.00
2023-01-18T11:54:06.947Z,5.80
2023-01-18T11:56:42.067Z,4.83
2023-01-18T11:59:14.664Z,3.10
2023-01-18T12:02:08.661Z,4.30
2023-01-18T12:04:45.823Z,4.17
2023-01-18T12:07:21.353Z,4.70
2023-01-18T12:09:53.379Z,3.53
2023-01-18T12:12:35.231Z,4.10
2023-01-18T12:15:15.039Z,5.50
2023-01-18T12:18:11.576Z,4.00
2023-01-18T12:20:46.604Z,3.83
2023-01-18T12:23:40.804Z,9.77
2023-01-18T12:26:20.051Z,4.20
2023-01-18T12:29:06.761Z,4.77
2023-01-18T12:31:50.695Z,3.20
2023-01-18T12:34:22.162Z,3.63
2023-01-18T12:37:23.457Z,6.77
2023-01-18T12:39:57.880Z,5.60
2023-01-18T12:42:36.562Z,6.70
2023-01-18T12:45:15.657Z,4.33
2023-01-18T12:47:47.960Z,4.13
2023-01-18T12:50:22.926Z,3.87
2023-01-18T12:52:54.032Z,7.77
2023-01-18T12:55:23.971Z,3.53
2023-01-18T12:57:53.991Z,4.60
2023-01-18T13:00:27.464Z,4.73
2023-01-18T13:02:57.991Z,6.97
2023-01-18T13:05:35.033Z,5.67
2023-01-18T13:08:09.130Z,7.00
2023-01-18T13:10:37.915Z,8.70
2023-01-18T13:13:06.965Z,9.33
2023-01-18T13:15:43.118Z,8.67
2023-01-18T13:18:15.879Z,9.93
2023-01-18T13:20:52.466Z,10.27
2023-01-18T13:23:30.342Z,10.50
2023-01-18T13:26:06.190Z,13.67
2023-01-18T13:28:34.095Z,15.00
2023-01-18T13:31:05.039Z,11.70
2023-01-18T13:33:34.972Z,9.43
2023-01-18T13:36:07.881Z,12.03
2023-01-18T13:38:41.734Z,10.23
2023-01-18T13:41:12.672Z,13.03
2023-01-18T13:44:01.308Z,10.37
2023-01-18T13:46:31.731Z,14.63
2023-01-18T13:49:02.413Z,11.73
2023-01-18T13:51:58.900Z,8.77
2023-01-18T13:55:02.786Z,12.53
2023-01-18T13:57:32.707Z,8.20
2023-01-18T14:00:02.349Z,9.23
2023-01-18T14:02:41.920Z,11.23
2023-01-18T14:05:20.045Z,7.83
2023-01-18T14:07:50.187Z,7.47
2023-01-18T14:10:25.201Z,6.97
2023-01-18T14:12:54.447Z,5.67
2023-01-18T14:15:30.007Z,7.87
2023-01-18T14:17:59.666Z,10.33
2023-01-18T14:20:47.822Z,7.17
2023-01-18T14:23:28.441Z,9.50
2023-01-18T14:25:59.811Z,8.97
2023-01-18T14:28:32.629Z,11.40
2023-01-18T14:31:03.489Z,14.53
2023-01-18T14:33:34.638Z,8.57
2023-01-18T14:36:03.093Z,6.43
2023-01-18T14:38:31.822Z,8.23
2023-01-18T14:41:03.393Z,5.33
2023-01-18T14:43:35.001Z,7.93
2023-01-18T14:46:04.381Z,11.10
2023-01-18T14:48:36.115Z,7.80
2023-01-18T14:51:05.238Z,4.90
2023-01-18T14:53:36.929Z,12.53
2023-01-18T14:56:08.375Z,9.57
2023-01-18T14:58:39.426Z,7.70
2023-01-18T15:01:09.200Z,8.90
2023-01-18T15:03:39.775Z,7.37
2023-01-18T15:06:13.645Z,10.43
2023-01-18T15:08:42.379Z,8.10
2023-01-18T15:11:10.628Z,8.80
2023-01-18T15:13:47.459Z,8.27
2023-01-18T15:16:18.260Z,11.20
2023-01-18T15:18:48.238Z,9.30
2023-01-18T15:21:19.566Z,16.97
2023-01-18T15:23:47.468Z,9.47
2023-01-18T15:26:15.350Z,8.13
2023-01-18T15:28:43.269Z,9.90
2023-01-18T15:31:14.707Z,12.40
2023-01-18T15:33:46.785Z,10.70
2023-01-18T15:36:15.295Z,6.93
2023-01-18T15:38:43.167Z,9.77
2023-01-18T15:41:14.621Z,12.83
2023-01-18T15:43:43.824Z,9.70
2023-01-18T15:46:13.986Z,18.23
2023-01-18T15:48:50.109Z,12.40
2023-01-18T15:51:18.237Z,11.57
2023-01-18T15:53:52.325Z,13.30
2023-01-18T15:56:24.427Z,21.37
2023-01-18T15:58:55.729Z,15.80
2023-01-18T16:01:28.018Z,14.47
2023-01-18T16:03:59.619Z,15.50
2023-01-18T16:06:35.067Z,14.00
2023-01-18T16:09:10.524Z,17.23
2023-01-18T16:11:46.430Z,12.60
2023-01-18T16:14:23.779Z,20.37
2023-01-18T16:16:53.054Z,16.07
2023-01-18T16:19:25.985Z,18.23
2023-01-18T16:21:57.541Z,16.70
2023-01-18T16:24:32.354Z,18.63
2023-01-18T16:27:02.093Z,22.97
2023-01-18T16:29:30.811Z,15.20
2023-01-18T16:32:17.422Z,13.77
2023-01-18T16:34:46.663Z,12.03
2023-01-18T16:37:14.512Z,20.33
2023-01-18T16:39:42.629Z,16.90
2023-01-18T16:42:12.341Z,21.03
2023-01-18T16:44:43.357Z,21.10
2023-01-18T16:47:12.325Z,19.47
2023-01-18T16:49:41.172Z,15.90
2023-01-18T16:52:12.659Z,17.50
2023-01-18T16:54:41.935Z,15.33
2023-01-18T16:57:16.579Z,20.67
2023-01-18T16:59:44.447Z,16.10
2023-01-18T17:02:12.344Z,20.40
2023-01-18T17:04:40.353Z,20.47
2023-01-18T17:07:10.791Z,18.23
2023-01-18T17:09:47.966Z,17.80
2023-01-18T17:12:16.817Z,17.20
2023-01-18T17:14:44.786Z,14.17
2023-01-18T17:17:12.772Z,20.77
2023-01-18T17:19:43.421Z,18.30
2023-01-18T17:22:12.640Z,23.47
2023-01-18T17:24:40.644Z,10.63
2023-01-18T17:27:11.273Z,19.07
2023-01-18T17:29:39.267Z,16.13
2023-01-18T17:32:08.077Z,18.77
2023-01-18T17:34:35.987Z,19.93
2023-01-18T17:37:04.057Z,17.60
2023-01-18T17:39:43.555Z,14.93
2023-01-18T17:42:25.843Z,17.13
2023-01-18T17:45:02.665Z,18.20
2023-01-18T17:47:30.747Z,17.93
2023-01-18T17:49:58.749Z,15.83
2023-01-18T17:52:27.309Z,18.17
2023-01-18T17:54:56.594Z,13.90
2023-01-18T17:57:24.419Z,18.87
2023-01-18T17:59:55.676Z,17.63
2023-01-18T18:02:23.748Z,16.63
2023-01-18T18:04:52.109Z,18.27
2023-01-18T18:07:19.978Z,18.93
2023-01-18T18:09:47.842Z,18.57
2023-01-18T18:12:20.237Z,18.00
2023-01-18T18:14:51.570Z,15.90
2023-01-18T18:17:19.498Z,15.00
2023-01-18T18:19:47.323Z,19.87
2023-01-18T18:22:15.141Z,15.60
2023-01-18T18:24:43.045Z,16.17
2023-01-18T18:27:10.967Z,19.13
2023-01-18T18:29:40.266Z,15.83
2023-01-18T18:32:08.413Z,20.03
2023-01-18T18:34:36.955Z,22.13
2023-01-18T18:37:05.790Z,22.93
2023-01-18T18:39:36.490Z,21.27
2023-01-18T18:42:04.580Z,19.63
2023-01-18T18:44:32.638Z,21.77
2023-01-18T18:47:04.038Z,23.57
2023-01-18T18:49:32.830Z,20.93
2023-01-18T18:52:02.305Z,16.30
2023-01-18T18:54:30.173Z,21.47
2023-01-18T18:56:58.053Z,23.93
2023-01-18T18:59:28.948Z,17.70
2023-01-18T19:01:59.967Z,18.23
2023-01-18T19:04:29.240Z,19.83
2023-01-18T19:06:57.163Z,19.70
2023-01-18T19:09:25.000Z,16.60
2023-01-18T19:11:55.504Z,18.50
2023-01-18T19:14:25.728Z,13.50
2023-01-18T19:16:53.815Z,22.47
2023-01-18T19:19:21.653Z,15.03
2023-01-18T19:21:53.314Z,15.70
2023-01-18T19:24:21.552Z,15.97
2023-01-18T19:26:49.847Z,13.47
2023-01-18T19:29:17.848Z,12.40
2023-01-18T19:31:46.452Z,18.07
2023-01-18T19:34:15.807Z,11.97
2023-01-18T19:36:44.108Z,10.50
2023-01-18T19:39:21.917Z,14.00
2023-01-18T19:41:53.479Z,12.10
2023-01-18T19:44:21.732Z,11.77
2023-01-18T19:46:49.650Z,10.83
2023-01-18T19:49:20.015Z,12.67
2023-01-18T19:51:47.988Z,12.53
2023-01-18T19:54:17.383Z,10.10
2023-01-18T19:56:45.251Z,6.90
2023-01-18T19:59:14.535Z,13.27
2023-01-18T20:01:42.766Z,14.90
2023-01-18T20:04:13.063Z,15.03
2023-01-18T20:06:43.196Z,14.43
2023-01-18T20:09:19.616Z,12.20
2023-01-18T20:11:50.475Z,13.17
2023-01-18T20:14:19.412Z,12.60
2023-01-18T20:16:48.002Z,14.77
2023-01-18T20:19:17.382Z,14.60
2023-01-18T20:21:45.386Z,11.83
2023-01-18T20:24:13.274Z,10.57
2023-01-18T20:26:42.230Z,22.20
2023-01-18T20:29:12.031Z,18.60
2023-01-18T20:31:43.067Z,11.97
2023-01-18T20:34:12.543Z,14.17
2023-01-18T20:36:40.609Z,15.13
2023-01-18T20:39:08.490Z,13.80
2023-01-18T20:41:36.365Z,10.67
2023-01-18T20:44:04.305Z,10.73
2023-01-18T20:46:33.468Z,13.13
2023-01-18T20:49:03.308Z,13.57
2023-01-18T20:51:31.232Z,14.63
2023-01-18T20:53:59.332Z,13.60
2023-01-18T20:56:29.501Z,12.93
2023-01-18T20:58:58.320Z,16.73
2023-01-18T21:01:32.628Z,17.13
2023-01-18T21:04:03.417Z,13.40
2023-01-18T21:06:31.630Z,15.63
2023-01-18T21:09:00.391Z,17.67
2023-01-18T21:11:28.679Z,17.43
2023-01-18T21:13:59.020Z,18.43
2023-01-18T21:16:27.683Z,17.80
2023-01-18T21:18:56.365Z,16.63
2023-01-18T21:21:26.716Z,17.80
2023-01-18T21:23:54.686Z,15.87
2023-01-18T21:26:22.545Z,16.03
2023-01-18T21:28:50.399Z,14.37
2023-01-18T21:31:18.531Z,22.83
2023-01-18T21:33:47.023Z,15.77
2023-01-18T21:36:17.749Z,18.40
2023-01-18T21:38:47.023Z,18.63
2023-01-18T21:41:32.475Z,16.60
2023-01-18T21:44:17.860Z,17.03
2023-01-18T21:46:46.590Z,14.53
2023-01-18T21:49:42.924Z,12.40
2023-01-18T21:52:32.742Z,18.30
2023-01-18T21:55:02.094Z,16.53
2023-01-18T21:57:29.917Z,15.50
2023-01-18T21:59:58.312Z,18.13
2023-01-18T22:02:26.301Z,18.27
2023-01-18T22:05:00.316Z,20.17
2023-01-18T22:07:32.579Z,15.30
2023-01-18T22:10:06.226Z,17.97
2023-01-18T22:12:39.006Z,19.57
2023-01-18T22:15:07.769Z,18.93
2023-01-18T22:17:35.663Z,14.70
2023-01-18T22:20:07.648Z,16.77
2023-01-18T22:22:35.477Z,14.13
2023-01-18T22:25:05.243Z,12.40
2023-01-18T22:27:34.539Z,12.97
2023-01-18T22:30:02.396Z,12.27
2023-01-18T22:32:30.215Z,15.87
2023-01-18T22:34:58.074Z,13.53
2023-01-18T22:37:27.672Z,14.73
2023-01-18T22:39:55.510Z,13.20
2023-01-18T22:42:24.835Z,13.30
2023-01-18T22:44:52.715Z,16.53
2023-01-18T22:47:20.585Z,13.03
2023-01-18T22:49:48.427Z,13.00
2023-01-18T22:52:16.608Z,12.00
2023-01-18T22:54:44.464Z,15.60
2023-01-18T22:57:12.337Z,13.30
2023-01-18T22:59:41.551Z,18.53
2023-01-18T23:02:09.358Z,11.70
2023-01-18T23:04:37.843Z,16.50
2023-01-18T23:07:05.736Z,11.80
2023-01-18T23:09:33.625Z,11.23
2023-01-18T23:12:01.488Z,15.73
2023-01-18T23:14:46.975Z,13.57
2023-01-18T23:17:34.029Z,12.10
2023-01-18T23:20:01.890Z,12.77
2023-01-18T23:22:29.777Z,10.90
2023-01-18T23:24:57.902Z,10.97
2023-01-18T23:27:25.955Z,14.67
2023-01-18T23:29:57.111Z,13.33
2023-01-18T23:32:30.362Z,8.93
2023-01-18T23:34:58.419Z,10.00
2023-01-18T23:37:27.259Z,10.13
2023-01-18T23:40:12.500Z,10.67
2023-01-18T23:42:57.776Z,12.07
2023-01-18T23:45:43.052Z,9.00
2023-01-18T23:48:30.998Z,12.13
2023-01-18T23:51:16.851Z,27.13
2023-01-18T23:54:02.060Z,9.10
2023-01-18T23:56:30.124Z,13.20
2023-01-18T23:58:58.724Z,11.40
